Dom Joaquim, Brazil
Current Conditions -  °F | °C
As of 11:00 AM on Thursday 30 Oct 2014 (Local Time) from SBIP Reporting Station
Overcast Overcast  
Wind Chill: 77°   Ceiling: 4000
Heat Index: 79°   Visibility: 6mi
Dew Point: 68°   Wind: 8mph
Humidity: 74%   Direction: 30°NNE
Pressure: 30"   Gusts: NA
Location:  18.97°S, 43.26°W
Report Text: SBIP 301300Z 03007KT 9999 SCT025 OVC040 25/20 Q1016
Loading
Personal Weather Stations






























Interactive Weather Map
Tropical Storm Tracking
New forecast layout! Learn more

10-Day Weather Forecast

Advertisements
Track Severe Weather on mobile